Time;durP1;ratioP1;P1;durP2;ratioP2;P2;SDS_P1;SDS_P2;PMS_P1;PMS_P2;Temp;Humidity;BMP_temperature;BMP_pressure;BME280_temperature;BME280_humidity;BME280_pressure;Samples;Min_cycle;Max_cycle;Signal;HPM_P1;HPM_P2
2022/03/26 00:00:39;;;;;;;;;;;;;;;6.08;70.52;102349.89;105264;1277;61141;-72
2022/03/26 00:03:06;;;;;;;;;;;;;;;6.03;70.96;102354.09;105099;1277;61250;-73
2022/03/26 00:05:33;;;;;;;;;;;;;;;6.00;71.14;102355.05;105078;1277;61323;-74
2022/03/26 00:08:00;;;;;;;;;;;;;;;5.94;70.99;102358.21;105234;1277;75001;-74
2022/03/26 00:10:29;;;;;;;;;;;;;;;5.89;71.12;102356.77;105165;1276;72331;-75
2022/03/26 00:12:57;;;;;;;;;;;;;;;5.84;71.24;102358.15;105152;1277;73704;-72
2022/03/26 00:15:24;;;;;;;;;;;;;;;5.81;71.66;102361.92;105083;1277;61270;-74
2022/03/26 00:17:50;;;;;;;;;;;;;;;5.77;71.86;102360.44;105062;1277;60431;-74
2022/03/26 00:20:17;;;;;;;;;;;;;;;5.72;72.01;102358.05;105165;1276;62467;-72
2022/03/26 00:22:48;;;;;;;;;;;;;;;5.68;72.37;102356.59;105138;1277;61834;-76
2022/03/26 00:25:17;;;;;;;;;;;;;;;5.67;72.89;102357.02;105157;1276;73040;-74
2022/03/26 00:27:43;;;;;;;;;;;;;;;5.65;72.91;102355.39;105106;1276;62531;-75
2022/03/26 00:30:13;;;;;;;;;;;;;;;5.63;73.06;102353.80;106044;1276;61270;-73
2022/03/26 00:32:48;;;;;;;;;;;;;;;5.60;72.94;102351.35;105080;1277;76312;-74
2022/03/26 00:35:18;;;;;;;;;;;;;;;5.58;73.03;102348.54;105210;1277;72118;-75
2022/03/26 00:37:44;;;;;;;;;;;;;;;5.54;73.10;102343.50;105063;1277;73389;-73
2022/03/26 00:40:13;;;;;;;;;;;;;;;5.50;73.03;102343.20;105106;1277;61342;-74
2022/03/26 00:42:40;;;;;;;;;;;;;;;5.47;73.42;102346.05;105214;1276;61363;-73
2022/03/26 00:45:07;;;;;;;;;;;;;;;5.44;73.46;102345.71;105254;1276;60615;-74
2022/03/26 00:47:34;;;;;;;;;;;;;;;5.42;73.55;102346.22;105243;1277;71418;-74
2022/03/26 00:50:00;;;;;;;;;;;;;;;5.38;73.69;102344.36;105143;1277;61345;-74
2022/03/26 00:52:27;;;;;;;;;;;;;;;5.35;74.03;102345.27;105101;1277;61254;-74
2022/03/26 00:54:53;;;;;;;;;;;;;;;5.33;74.42;102342.59;105149;1276;61377;-74
2022/03/26 00:57:20;;;;;;;;;;;;;;;5.30;74.30;102340.83;105157;1277;62076;-73
2022/03/26 00:59:46;;;;;;;;;;;;;;;5.27;74.36;102342.59;105162;1276;61271;-72
2022/03/26 01:02:13;;;;;;;;;;;;;;;5.25;74.67;102340.51;105089;1277;61250;-73
2022/03/26 01:04:39;;;;;;;;;;;;;;;5.22;74.50;102336.12;105096;1276;61364;-73
2022/03/26 01:07:06;;;;;;;;;;;;;;;5.20;75.06;102336.94;105008;1277;62500;-74
2022/03/26 01:09:33;;;;;;;;;;;;;;;5.18;75.19;102336.70;105089;1277;61466;-74
2022/03/26 01:11:59;;;;;;;;;;;;;;;5.18;75.53;102334.95;105137;1277;61176;-72
2022/03/26 01:14:26;;;;;;;;;;;;;;;5.18;75.38;102333.73;105134;1276;61272;-74
2022/03/26 01:16:55;;;;;;;;;;;;;;;5.20;75.61;102336.76;104974;1277;61100;-72
2022/03/26 01:19:22;;;;;;;;;;;;;;;5.19;75.33;102339.44;105181;1276;61238;-73
2022/03/26 01:21:51;;;;;;;;;;;;;;;5.18;75.45;102334.29;105236;1277;75635;-75
2022/03/26 01:24:17;;;;;;;;;;;;;;;5.16;75.56;102335.29;105020;1277;72614;-73
2022/03/26 01:26:44;;;;;;;;;;;;;;;5.13;75.50;102333.35;105116;1277;72903;-74
2022/03/26 01:29:10;;;;;;;;;;;;;;;5.10;75.56;102329.85;105173;1276;61374;-73
2022/03/26 01:31:37;;;;;;;;;;;;;;;5.07;75.63;102330.05;105175;1276;61217;-73
2022/03/26 01:34:04;;;;;;;;;;;;;;;5.06;75.91;102329.58;105181;1277;61243;-74
2022/03/26 01:36:30;;;;;;;;;;;;;;;5.04;76.51;102328.68;106946;1276;59668;-73
2022/03/26 01:38:57;;;;;;;;;;;;;;;5.03;76.84;102327.15;105016;1277;73043;-74
2022/03/26 01:41:24;;;;;;;;;;;;;;;5.03;76.68;102323.14;105161;1276;61373;-73
2022/03/26 01:43:51;;;;;;;;;;;;;;;5.01;76.72;102322.90;105124;1277;61375;-73
2022/03/26 01:46:24;;;;;;;;;;;;;;;4.99;76.37;102323.01;105132;1277;74832;-74
2022/03/26 01:48:51;;;;;;;;;;;;;;;4.96;76.83;102325.84;105071;1277;71934;-73
2022/03/26 01:51:21;;;;;;;;;;;;;;;4.95;76.60;102322.80;105041;1277;61138;-74
2022/03/26 01:53:49;;;;;;;;;;;;;;;4.92;76.77;102322.96;105146;1276;61304;-73
2022/03/26 01:56:16;;;;;;;;;;;;;;;4.88;76.89;102327.06;105198;1277;62325;-74
2022/03/26 01:58:43;;;;;;;;;;;;;;;4.85;76.99;102327.98;105061;1277;76185;-73
2022/03/26 02:01:10;;;;;;;;;;;;;;;4.81;77.08;102320.47;105087;1276;71411;-74
2022/03/26 02:03:40;;;;;;;;;;;;;;;4.78;77.14;102323.34;105111;1276;72924;-74
2022/03/26 02:06:07;;;;;;;;;;;;;;;4.74;77.54;102320.39;105105;1276;62452;-73
2022/03/26 02:08:34;;;;;;;;;;;;;;;4.70;77.25;102323.66;105167;1275;60098;-75
2022/03/26 02:11:01;;;;;;;;;;;;;;;4.64;77.16;102321.88;105061;1277;75945;-72
2022/03/26 02:13:47;;;;;;;;;;;;;;;4.59;77.25;102319.27;105249;1276;70123;-77
2022/03/26 02:16:14;;;;;;;;;;;;;;;4.53;77.75;102315.95;105119;1277;72977;-75
2022/03/26 02:18:41;;;;;;;;;;;;;;;4.46;78.01;102312.83;105078;1277;61513;-74
2022/03/26 02:21:09;;;;;;;;;;;;;;;4.42;78.24;102308.58;105113;1276;61292;-73
2022/03/26 02:23:35;;;;;;;;;;;;;;;4.40;78.39;102313.05;105147;1277;73990;-75
2022/03/26 02:26:02;;;;;;;;;;;;;;;4.36;78.77;102311.75;105118;1277;61337;-75
2022/03/26 02:28:28;;;;;;;;;;;;;;;4.32;78.93;102313.42;105112;1277;61223;-74
2022/03/26 02:30:55;;;;;;;;;;;;;;;4.28;78.81;102312.92;105145;1277;61222;-75
2022/03/26 02:33:21;;;;;;;;;;;;;;;4.24;79.48;102311.27;105151;1277;61645;-75
2022/03/26 02:35:48;;;;;;;;;;;;;;;4.20;79.52;102311.47;105135;1277;74992;-73
2022/03/26 02:38:14;;;;;;;;;;;;;;;4.17;79.37;102313.27;105180;1277;61177;-75
2022/03/26 02:40:42;;;;;;;;;;;;;;;4.14;79.90;102316.60;105067;1277;61342;-74
2022/03/26 02:43:08;;;;;;;;;;;;;;;4.09;79.62;102313.88;105094;1276;61537;-74
2022/03/26 02:45:35;;;;;;;;;;;;;;;4.06;79.89;102317.42;105221;1277;61422;-74
2022/03/26 02:48:01;;;;;;;;;;;;;;;4.02;80.05;102316.44;105205;1276;74596;-74
2022/03/26 02:50:28;;;;;;;;;;;;;;;3.97;80.22;102315.64;105158;1277;61154;-73
2022/03/26 02:52:54;;;;;;;;;;;;;;;3.93;80.42;102314.69;105785;1277;61483;-73
2022/03/26 02:55:21;;;;;;;;;;;;;;;3.88;80.68;102313.77;105157;1277;61384;-73
2022/03/26 02:57:48;;;;;;;;;;;;;;;3.85;80.40;102315.54;105149;1276;61263;-73
2022/03/26 03:00:14;;;;;;;;;;;;;;;3.81;81.22;102316.61;105058;1276;75089;-73
2022/03/26 03:02:42;;;;;;;;;;;;;;;3.79;81.74;102312.19;105163;1277;72593;-73
2022/03/26 03:05:09;;;;;;;;;;;;;;;3.77;81.65;102312.31;105328;1276;72953;-74
2022/03/26 03:07:39;;;;;;;;;;;;;;;3.76;81.87;102312.02;105206;1277;61360;-74
2022/03/26 03:10:07;;;;;;;;;;;;;;;3.75;82.20;102303.33;105085;1277;61327;-72
2022/03/26 03:12:33;;;;;;;;;;;;;;;3.75;82.72;102297.95;105233;1277;75948;-74
2022/03/26 03:15:02;;;;;;;;;;;;;;;3.74;83.31;102297.61;106467;1276;71352;-73
2022/03/26 03:17:28;;;;;;;;;;;;;;;3.76;83.47;102295.08;105089;1277;73942;-76
2022/03/26 03:19:55;;;;;;;;;;;;;;;3.77;83.39;102295.21;105068;1277;61278;-73
2022/03/26 03:22:21;;;;;;;;;;;;;;;3.77;83.77;102293.23;105212;1277;61158;-74
2022/03/26 03:24:48;;;;;;;;;;;;;;;3.80;84.20;102292.01;105198;1277;61164;-74
2022/03/26 03:27:14;;;;;;;;;;;;;;;3.84;84.79;102293.02;105157;1277;61381;-75
2022/03/26 03:29:41;;;;;;;;;;;;;;;3.87;84.45;102291.62;105230;1276;61210;-74
2022/03/26 03:32:07;;;;;;;;;;;;;;;3.90;84.24;102290.38;105226;1276;62390;-74
2022/03/26 03:34:34;;;;;;;;;;;;;;;3.91;83.63;102285.42;105172;1277;61345;-75
2022/03/26 03:37:01;;;;;;;;;;;;;;;3.93;83.68;102286.89;105038;1277;61362;-75
2022/03/26 03:39:27;;;;;;;;;;;;;;;3.93;83.27;102289.35;105000;1277;61258;-76
2022/03/26 03:41:54;;;;;;;;;;;;;;;3.92;83.38;102287.98;105442;1276;61301;-73
2022/03/26 03:44:20;;;;;;;;;;;;;;;3.93;83.73;102285.50;105184;1276;59995;-75
2022/03/26 03:46:56;;;;;;;;;;;;;;;3.94;83.53;102285.75;105175;1276;61213;-75
2022/03/26 03:49:23;;;;;;;;;;;;;;;3.95;83.84;102283.61;105169;1277;76064;-74
2022/03/26 03:51:49;;;;;;;;;;;;;;;3.96;83.76;102282.87;105248;1276;71413;-75
2022/03/26 03:54:16;;;;;;;;;;;;;;;3.95;84.10;102275.89;105686;1276;60852;-76
2022/03/26 03:56:42;;;;;;;;;;;;;;;3.95;83.68;102275.52;105138;1276;62121;-75
2022/03/26 03:59:09;;;;;;;;;;;;;;;3.95;83.52;102275.40;104988;1277;61239;-75
2022/03/26 04:01:35;;;;;;;;;;;;;;;3.95;83.83;102274.67;104984;1277;61243;-74
2022/03/26 04:04:02;;;;;;;;;;;;;;;3.95;83.58;102273.61;105064;1277;70369;-75
2022/03/26 04:06:29;;;;;;;;;;;;;;;3.95;83.83;102274.80;104937;1276;61237;-74
2022/03/26 04:08:55;;;;;;;;;;;;;;;3.95;83.72;102271.16;105037;1277;61399;-74
2022/03/26 04:11:22;;;;;;;;;;;;;;;3.94;83.34;102268.23;104964;1277;61266;-74
2022/03/26 04:13:52;;;;;;;;;;;;;;;3.92;83.20;102263.12;105060;1277;74933;-72
2022/03/26 04:16:20;;;;;;;;;;;;;;;3.90;83.38;102262.05;105011;1277;71486;-73
2022/03/26 04:18:46;;;;;;;;;;;;;;;3.87;83.22;102262.71;105002;1276;74176;-76
2022/03/26 04:21:18;;;;;;;;;;;;;;;3.86;84.01;102259.31;105056;1275;61663;-74
2022/03/26 04:23:45;;;;;;;;;;;;;;;3.86;84.33;102259.65;105046;1276;61267;-76
2022/03/26 04:26:11;;;;;;;;;;;;;;;3.85;83.89;102260.54;104888;1277;77403;-75
2022/03/26 04:28:38;;;;;;;;;;;;;;;3.84;83.95;102270.92;105066;1277;61269;-75
2022/03/26 04:31:09;;;;;;;;;;;;;;;3.83;84.21;102274.69;105009;1276;72798;-73
2022/03/26 04:33:35;;;;;;;;;;;;;;;3.81;84.01;102276.18;104959;1277;63232;-75
2022/03/26 04:36:02;;;;;;;;;;;;;;;3.78;83.66;102277.42;104988;1277;62257;-74
2022/03/26 04:38:28;;;;;;;;;;;;;;;3.75;83.37;102280.80;104993;1277;61141;-75
2022/03/26 04:40:55;;;;;;;;;;;;;;;3.71;83.49;102281.02;104985;1277;61193;-75
2022/03/26 04:43:23;;;;;;;;;;;;;;;3.66;83.46;102285.28;105035;1277;73116;-73
2022/03/26 04:45:50;;;;;;;;;;;;;;;3.63;83.26;102290.77;104898;1277;62499;-74
2022/03/26 04:48:16;;;;;;;;;;;;;;;3.58;83.68;102293.16;105083;1277;61266;-74
2022/03/26 04:50:43;;;;;;;;;;;;;;;3.53;83.43;102292.37;105046;1277;61245;-74
2022/03/26 04:53:13;;;;;;;;;;;;;;;3.50;83.78;102297.13;105127;1277;71382;-76
2022/03/26 04:55:42;;;;;;;;;;;;;;;3.46;83.81;102296.30;104981;1277;73030;-75
2022/03/26 04:58:09;;;;;;;;;;;;;;;3.43;84.20;102297.86;104986;1277;61202;-74
2022/03/26 05:00:36;;;;;;;;;;;;;;;3.40;84.28;102300.45;104971;1277;61622;-74
2022/03/26 05:03:02;;;;;;;;;;;;;;;3.37;84.25;102305.55;105029;1277;76165;-74
2022/03/26 05:05:29;;;;;;;;;;;;;;;3.34;84.23;102307.29;104983;1277;72621;-76
2022/03/26 05:07:58;;;;;;;;;;;;;;;3.31;84.25;102309.41;104955;1277;61255;-73
2022/03/26 05:10:30;;;;;;;;;;;;;;;3.27;84.31;102311.34;105097;1277;61701;-74
2022/03/26 05:12:58;;;;;;;;;;;;;;;3.24;84.40;102311.36;105248;1276;61262;-72
2022/03/26 05:15:28;;;;;;;;;;;;;;;3.20;84.41;102308.77;105116;1277;74025;-74
2022/03/26 05:17:58;;;;;;;;;;;;;;;3.17;84.58;102308.06;105010;1276;71522;-73
2022/03/26 05:20:25;;;;;;;;;;;;;;;3.15;85.00;102309.41;105193;1277;73159;-74
2022/03/26 05:22:52;;;;;;;;;;;;;;;3.15;84.91;102311.89;105095;1276;61469;-77
2022/03/26 05:25:19;;;;;;;;;;;;;;;3.14;85.23;102315.59;104909;1276;61382;-73
2022/03/26 05:27:50;;;;;;;;;;;;;;;3.14;85.15;102319.25;104965;1277;74988;-74
2022/03/26 05:30:17;;;;;;;;;;;;;;;3.14;85.28;102322.23;105007;1276;71479;-74
2022/03/26 05:32:44;;;;;;;;;;;;;;;3.13;85.10;102324.20;105155;1275;73979;-74
2022/03/26 05:35:13;;;;;;;;;;;;;;;3.13;85.30;102319.30;105077;1277;61276;-72
2022/03/26 05:37:41;;;;;;;;;;;;;;;3.14;85.59;102323.44;105905;1276;59745;-74
2022/03/26 05:40:08;;;;;;;;;;;;;;;3.16;85.63;102324.20;105216;1276;76022;-72
2022/03/26 05:42:35;;;;;;;;;;;;;;;3.18;85.58;102326.77;105253;1277;71457;-72
2022/03/26 05:45:02;;;;;;;;;;;;;;;3.20;85.45;102327.48;105008;1277;73101;-72
2022/03/26 05:47:30;;;;;;;;;;;;;;;3.23;85.64;102335.33;105012;1276;61348;-73
2022/03/26 05:49:57;;;;;;;;;;;;;;;3.28;85.56;102336.86;105104;1276;61223;-77
2022/03/26 05:52:24;;;;;;;;;;;;;;;3.33;85.83;102337.98;105173;1277;76168;-73
2022/03/26 05:54:51;;;;;;;;;;;;;;;3.38;85.67;102334.50;105065;1276;71362;-73
2022/03/26 05:57:20;;;;;;;;;;;;;;;3.43;85.46;102336.30;105058;1276;72524;-74
2022/03/26 05:59:47;;;;;;;;;;;;;;;3.50;85.61;102335.58;105088;1276;62212;-74
2022/03/26 06:02:14;;;;;;;;;;;;;;;3.57;85.43;102332.21;105212;1277;61236;-74
2022/03/26 06:04:44;;;;;;;;;;;;;;;3.64;85.40;102332.50;105066;1274;75122;-75
2022/03/26 06:07:11;;;;;;;;;;;;;;;3.72;85.40;102341.49;104976;1276;71537;-75
2022/03/26 06:09:40;;;;;;;;;;;;;;;3.80;85.20;102344.85;105076;1276;74084;-74
2022/03/26 06:12:07;;;;;;;;;;;;;;;3.89;85.05;102347.69;105170;1277;61504;-76
2022/03/26 06:14:34;;;;;;;;;;;;;;;3.99;85.07;102347.41;105156;1277;61148;-74
2022/03/26 06:17:06;;;;;;;;;;;;;;;4.09;85.06;102350.00;105084;1276;76132;-76
2022/03/26 06:19:33;;;;;;;;;;;;;;;4.18;84.97;102348.71;105103;1277;71334;-76
2022/03/26 06:21:59;;;;;;;;;;;;;;;4.32;84.66;102352.27;105130;1277;74025;-74
2022/03/26 06:24:26;;;;;;;;;;;;;;;4.44;84.14;102354.67;105056;1277;59385;-77
2022/03/26 06:26:56;;;;;;;;;;;;;;;4.57;83.96;102358.42;105061;1276;61266;-77
2022/03/26 06:29:25;;;;;;;;;;;;;;;4.70;83.66;102362.17;105105;1277;73829;-74
2022/03/26 06:31:53;;;;;;;;;;;;;;;4.83;83.25;102363.83;105157;1277;71329;-75
2022/03/26 06:34:24;;;;;;;;;;;;;;;4.96;82.85;102369.36;105120;1277;72972;-76
2022/03/26 06:36:50;;;;;;;;;;;;;;;5.08;82.75;102373.48;105103;1277;61573;-75
2022/03/26 06:39:17;;;;;;;;;;;;;;;5.21;82.00;102373.53;105097;1277;62278;-76
2022/03/26 06:41:44;;;;;;;;;;;;;;;5.33;81.82;102374.33;105114;1277;61368;-75
2022/03/26 06:44:10;;;;;;;;;;;;;;;5.46;81.21;102370.32;105126;1276;72453;-74
2022/03/26 06:46:40;;;;;;;;;;;;;;;5.60;80.89;102373.63;105084;1276;72952;-75
2022/03/26 06:49:07;;;;;;;;;;;;;;;5.74;80.36;102371.98;105020;1277;61340;-75
2022/03/26 06:51:35;;;;;;;;;;;;;;;5.88;80.25;102375.80;105174;1277;61662;-75
2022/03/26 06:54:05;;;;;;;;;;;;;;;6.03;79.83;102375.56;105104;1277;75088;-74
2022/03/26 06:56:31;;;;;;;;;;;;;;;6.18;79.37;102374.38;105077;1276;72591;-74
2022/03/26 06:58:58;;;;;;;;;;;;;;;6.33;79.04;102371.95;105078;1277;74131;-73
2022/03/26 07:01:24;;;;;;;;;;;;;;;6.47;78.62;102368.45;105059;1277;61446;-76
2022/03/26 07:03:52;;;;;;;;;;;;;;;6.63;77.88;102367.71;105143;1277;61326;-75
2022/03/26 07:06:19;;;;;;;;;;;;;;;6.77;77.05;102367.95;105114;1277;76311;-75
2022/03/26 07:08:46;;;;;;;;;;;;;;;6.92;76.54;102366.20;105243;1277;70869;-75
2022/03/26 07:11:13;;;;;;;;;;;;;;;7.07;75.53;102364.73;105223;1276;74797;-75
2022/03/26 07:13:39;;;;;;;;;;;;;;;7.24;74.83;102365.30;105009;1277;626419;-77
2022/03/26 07:16:07;;;;;;;;;;;;;;;7.39;74.16;102362.09;105199;1277;61986;-73
2022/03/26 07:18:35;;;;;;;;;;;;;;;7.53;73.12;102363.34;104968;1276;75620;-75
2022/03/26 07:21:01;;;;;;;;;;;;;;;7.68;72.48;102366.12;105047;1276;71403;-75
2022/03/26 07:23:28;;;;;;;;;;;;;;;7.81;71.02;102369.52;105133;1276;61468;-72
2022/03/26 07:25:55;;;;;;;;;;;;;;;7.95;70.65;102363.71;105050;1277;62202;-74
2022/03/26 07:28:22;;;;;;;;;;;;;;;8.08;69.70;102365.89;105052;1277;61372;-75
2022/03/26 07:30:49;;;;;;;;;;;;;;;8.21;68.83;102360.73;105036;1277;74671;-73
2022/03/26 07:33:15;;;;;;;;;;;;;;;8.32;68.77;102353.80;105264;1276;61271;-75
2022/03/26 07:35:42;;;;;;;;;;;;;;;8.45;67.96;102355.65;105103;1279;61324;-72
2022/03/26 07:38:08;;;;;;;;;;;;;;;8.60;67.35;102363.54;105206;1276;61493;-73
2022/03/26 07:40:35;;;;;;;;;;;;;;;8.72;66.49;102363.73;105134;1276;61220;-73
2022/03/26 07:43:02;;;;;;;;;;;;;;;8.84;65.50;102367.75;105220;1277;61410;-74
2022/03/26 07:45:29;;;;;;;;;;;;;;;8.98;65.73;102364.58;105160;1277;71381;-73
2022/03/26 07:47:56;;;;;;;;;;;;;;;9.12;65.29;102371.02;105149;1276;74343;-72
2022/03/26 07:50:23;;;;;;;;;;;;;;;9.25;64.97;102371.70;105131;1276;62121;-73
2022/03/26 07:52:50;;;;;;;;;;;;;;;9.36;64.19;102371.31;105175;1275;61344;-73
2022/03/26 07:55:16;;;;;;;;;;;;;;;9.48;64.06;102371.63;105131;1277;75982;-74
2022/03/26 07:57:43;;;;;;;;;;;;;;;9.58;63.87;102366.69;105030;1277;71368;-73
2022/03/26 08:00:10;;;;;;;;;;;;;;;9.68;63.47;102370.80;105131;1277;61269;-73
2022/03/26 08:02:39;;;;;;;;;;;;;;;9.81;63.73;102369.20;105181;1276;61266;-74
2022/03/26 08:05:06;;;;;;;;;;;;;;;9.96;63.85;102365.65;105094;1276;61235;-73
2022/03/26 08:07:32;;;;;;;;;;;;;;;10.08;63.26;102360.52;105069;1277;74854;-73
2022/03/26 08:09:59;;;;;;;;;;;;;;;10.19;62.75;102363.00;105086;1277;71817;-74
2022/03/26 08:12:25;;;;;;;;;;;;;;;10.31;62.89;102373.67;105213;1276;61805;-74
2022/03/26 08:14:52;;;;;;;;;;;;;;;10.44;63.04;102372.90;106169;1274;61150;-75
2022/03/26 08:17:18;;;;;;;;;;;;;;;10.59;62.64;102371.92;105173;1276;61218;-72
2022/03/26 08:19:46;;;;;;;;;;;;;;;10.72;62.32;102372.97;105121;1276;61263;-75
2022/03/26 08:22:12;;;;;;;;;;;;;;;10.84;61.94;102373.29;105196;1277;72501;-73
2022/03/26 08:24:39;;;;;;;;;;;;;;;10.98;61.83;102374.88;105128;1277;73819;-75
2022/03/26 08:27:05;;;;;;;;;;;;;;;11.13;61.22;102380.33;105163;1276;61364;-75
2022/03/26 08:29:32;;;;;;;;;;;;;;;11.23;60.38;102387.39;105134;1277;61199;-73
2022/03/26 08:32:02;;;;;;;;;;;;;;;11.28;59.90;102384.78;105233;1276;61285;-74
2022/03/26 08:34:28;;;;;;;;;;;;;;;11.36;59.42;102388.71;105153;1276;72285;-72
2022/03/26 08:36:55;;;;;;;;;;;;;;;11.41;58.70;102393.34;105109;1276;61475;-71
2022/03/26 08:39:21;;;;;;;;;;;;;;;11.48;58.43;102395.27;105105;1277;61334;-71
2022/03/26 08:41:48;;;;;;;;;;;;;;;11.52;58.04;102393.94;105142;1277;61717;-70
2022/03/26 08:44:14;;;;;;;;;;;;;;;11.56;57.64;102391.83;105120;1276;61371;-70
2022/03/26 08:46:40;;;;;;;;;;;;;;;11.59;57.26;102395.69;105145;1277;61533;-71
2022/03/26 08:49:07;;;;;;;;;;;;;;;11.65;57.07;102396.00;105178;1276;61542;-71
2022/03/26 08:51:33;;;;;;;;;;;;;;;11.68;56.53;102394.52;105132;1277;59551;-71
2022/03/26 08:54:00;;;;;;;;;;;;;;;11.70;57.13;102386.13;104979;1277;61270;-71
2022/03/26 08:56:26;;;;;;;;;;;;;;;11.79;57.14;102387.42;105180;1277;61276;-69
2022/03/26 08:58:53;;;;;;;;;;;;;;;11.81;56.55;102392.00;105012;1276;61359;-72
2022/03/26 09:01:19;;;;;;;;;;;;;;;11.82;56.82;102386.39;105037;1277;61324;-70
2022/03/26 09:03:46;;;;;;;;;;;;;;;11.89;56.86;102390.11;104850;1277;61710;-70
2022/03/26 09:06:13;;;;;;;;;;;;;;;11.97;56.91;102386.33;105077;1276;61211;-72
2022/03/26 09:08:39;;;;;;;;;;;;;;;12.03;56.84;102386.45;104896;1276;61304;-71
2022/03/26 09:11:06;;;;;;;;;;;;;;;12.13;57.25;102380.41;104933;1276;61243;-72
2022/03/26 09:13:33;;;;;;;;;;;;;;;12.18;56.53;102382.57;104857;1276;61211;-71
2022/03/26 09:15:59;;;;;;;;;;;;;;;12.24;57.06;102379.01;105001;1276;61144;-70
2022/03/26 09:18:26;;;;;;;;;;;;;;;12.34;57.44;102378.34;104920;1279;61242;-71
2022/03/26 09:20:53;;;;;;;;;;;;;;;12.46;57.61;102380.72;104966;1276;74955;-71
2022/03/26 09:23:20;;;;;;;;;;;;;;;12.53;56.99;102379.35;104941;1276;71359;-72
2022/03/26 09:25:46;;;;;;;;;;;;;;;12.56;56.98;102372.41;104965;1276;73012;-73
2022/03/26 09:28:13;;;;;;;;;;;;;;;12.68;56.49;102379.29;104948;1276;61285;-72
2022/03/26 09:30:40;;;;;;;;;;;;;;;12.75;56.32;102371.00;104999;1276;61153;-71
2022/03/26 09:33:06;;;;;;;;;;;;;;;12.84;56.23;102370.81;104989;1277;74861;-69
2022/03/26 09:35:33;;;;;;;;;;;;;;;12.96;56.18;102370.16;105222;1276;61223;-72
2022/03/26 09:37:59;;;;;;;;;;;;;;;13.07;56.42;102375.17;104998;1276;61293;-68
2022/03/26 09:40:26;;;;;;;;;;;;;;;13.08;56.62;102370.31;104877;1276;62061;-72
2022/03/26 09:42:53;;;;;;;;;;;;;;;13.14;56.51;102365.48;104893;1276;61253;-75
2022/03/26 09:45:20;;;;;;;;;;;;;;;13.18;55.41;102373.74;104746;1278;75137;-72
2022/03/26 09:47:46;;;;;;;;;;;;;;;13.23;56.23;102362.28;104870;1277;73312;-73
2022/03/26 09:50:13;;;;;;;;;;;;;;;13.28;55.53;102363.55;104855;1276;61329;-72
2022/03/26 09:52:40;;;;;;;;;;;;;;;13.31;54.99;102357.98;104957;1276;61385;-71
2022/03/26 09:55:11;;;;;;;;;;;;;;;13.38;55.50;102354.52;104785;1277;61324;-72
2022/03/26 09:57:39;;;;;;;;;;;;;;;13.50;54.83;102357.30;104952;1276;75020;-72
2022/03/26 10:00:08;;;;;;;;;;;;;;;13.58;54.75;102353.96;104931;1276;72370;-71
2022/03/26 10:02:34;;;;;;;;;;;;;;;13.65;54.76;102349.03;104852;1276;73131;-69
2022/03/26 10:05:02;;;;;;;;;;;;;;;13.73;54.46;102347.35;104911;1277;61323;-70
2022/03/26 10:07:30;;;;;;;;;;;;;;;13.77;53.96;102355.32;105349;1276;61295;-70
2022/03/26 10:09:56;;;;;;;;;;;;;;;13.80;53.83;102348.20;105195;1277;74914;-71
2022/03/26 10:12:27;;;;;;;;;;;;;;;13.83;53.86;102354.26;104901;1279;61145;-71
2022/03/26 10:15:01;;;;;;;;;;;;;;;13.94;54.06;102343.92;105018;1276;74155;-70
2022/03/26 10:17:29;;;;;;;;;;;;;;;14.09;53.43;102351.16;104941;1277;61346;-71
2022/03/26 10:19:59;;;;;;;;;;;;;;;14.08;52.76;102351.98;104881;1276;61478;-70
2022/03/26 10:22:28;;;;;;;;;;;;;;;14.06;53.02;102346.47;105029;1276;75043;-71
2022/03/26 10:25:04;;;;;;;;;;;;;;;14.16;53.18;102341.70;104938;1276;71405;-72
2022/03/26 10:27:47;;;;;;;;;;;;;;;14.23;52.84;102345.04;104959;1276;72955;-70
2022/03/26 10:30:14;;;;;;;;;;;;;;;14.25;52.71;102345.85;105038;1276;61250;-70
2022/03/26 10:32:43;;;;;;;;;;;;;;;14.27;52.28;102345.52;105097;1276;61785;-69
2022/03/26 10:35:19;;;;;;;;;;;;;;;14.31;52.20;102340.34;105057;1277;74992;-70
2022/03/26 10:37:47;;;;;;;;;;;;;;;14.40;52.03;102330.87;104963;1276;71203;-71
2022/03/26 10:40:24;;;;;;;;;;;;;;;14.46;52.27;102327.70;105050;1277;72071;-72
2022/03/26 10:42:57;;;;;;;;;;;;;;;14.62;52.15;102324.19;105112;1276;62515;-70
2022/03/26 10:45:24;;;;;;;;;;;;;;;14.76;51.65;102318.55;104999;1276;62483;-70
2022/03/26 10:47:55;;;;;;;;;;;;;;;14.92;51.42;102313.31;105027;1277;76021;-71
2022/03/26 10:50:23;;;;;;;;;;;;;;;15.06;51.25;102311.44;105114;1276;72280;-71
2022/03/26 10:52:53;;;;;;;;;;;;;;;15.18;50.70;102313.04;105047;1277;72894;-70
2022/03/26 10:55:19;;;;;;;;;;;;;;;15.31;50.43;102312.30;105034;1276;62264;-71
2022/03/26 10:57:46;;;;;;;;;;;;;;;15.34;48.94;102311.95;104991;1277;61241;-72
2022/03/26 11:00:14;;;;;;;;;;;;;;;15.33;49.08;102311.79;105008;1276;76055;-71
2022/03/26 11:02:42;;;;;;;;;;;;;;;15.40;49.23;102313.09;104998;1277;72209;-71
2022/03/26 11:05:09;;;;;;;;;;;;;;;15.52;48.97;102316.30;104981;1276;73990;-71
2022/03/26 11:07:37;;;;;;;;;;;;;;;15.60;48.18;102315.05;105132;1277;61663;-70
2022/03/26 11:10:07;;;;;;;;;;;;;;;15.66;46.85;102316.02;107202;1276;61362;-72
2022/03/26 11:12:34;;;;;;;;;;;;;;;15.65;46.91;102311.98;105184;1277;75965;-70
2022/03/26 11:15:02;;;;;;;;;;;;;;;15.65;46.94;102307.93;104975;1277;61364;-70
2022/03/26 11:20:09;;;;;;;17.90;9.30;;;;;;;15.70;46.26;102313.39;102542;1303;600219;-69
2022/03/26 11:23:03;;;;;;;14.40;8.30;;;;;;;15.76;46.61;102316.21;104487;1284;60424;-70
2022/03/26 11:25:44;;;;;;;15.00;8.60;;;;;;;15.72;46.27;102316.05;105312;1285;60605;-71
2022/03/26 11:28:11;;;;;;;15.50;8.00;;;;;;;15.68;44.42;102314.52;104501;1284;73542;-70
2022/03/26 11:31:08;;;;;;;17.30;8.70;;;;;;;15.72;45.00;102311.66;104533;1284;59277;-71
2022/03/26 11:33:37;;;;;;;14.10;8.10;;;;;;;15.79;45.75;102308.84;104914;1280;292769;-69
2022/03/26 11:36:10;;;;;;;14.70;7.20;;;;;;;15.95;45.00;102297.01;106677;1280;59277;-69
2022/03/26 11:38:37;;;;;;;11.80;6.90;;;;;;;16.12;44.65;102296.08;104976;1280;61448;-70
2022/03/26 11:41:08;;;;;;;14.20;7.30;;;;;;;16.25;43.93;102296.10;105068;1280;72197;-69
2022/03/26 11:43:47;;;;;;;13.40;8.30;;;;;;;16.28;44.30;102297.09;105153;1280;72465;-69
2022/03/26 11:52:19;;;;;;;12.70;6.90;;;;;;;16.80;42.62;102279.27;104900;1280;59712;-71
2022/03/26 11:55:02;;;;;;;16.80;8.20;;;;;;;17.14;42.37;102278.77;104547;1281;71796;-68
2022/03/26 11:57:29;;;;;;;14.70;8.10;;;;;;;17.75;41.49;102275.10;104916;1280;71368;-71
2022/03/26 11:59:59;;;;;;;15.80;7.50;;;;;;;18.27;40.28;102273.89;104806;1280;73812;-70
2022/03/26 12:02:31;;;;;;;15.30;8.70;;;;;;;18.61;38.86;102269.58;104927;1280;61773;-70
2022/03/26 12:06:36;;;;;;;11.70;7.80;;;;;;;18.80;38.50;102268.81;104960;1280;61694;-70
2022/03/26 12:08:28;;;;;;;17.00;9.10;;;;;;;19.06;38.16;102269.56;104907;1279;73312;-72
2022/03/26 12:10:56;;;;;;;15.20;7.00;;;;;;;19.23;38.00;102265.74;104891;1278;72581;-67
2022/03/26 12:13:23;;;;;;;14.90;8.50;;;;;;;19.35;37.44;102271.42;104959;1279;74176;-71
2022/03/26 12:16:08;;;;;;;16.60;9.30;;;;;;;19.54;37.27;102256.95;104885;1280;60797;-68
2022/03/26 12:18:44;;;;;;;13.70;8.30;;;;;;;19.95;37.20;102265.02;104860;1279;61614;-70
2022/03/26 12:21:20;;;;;;;13.20;8.50;;;;;;;19.93;36.95;102263.02;105293;1271;73289;-70
2022/03/26 12:23:48;;;;;;;15.60;9.30;;;;;;;19.95;36.50;102260.67;105293;1271;71777;-68
2022/03/26 12:26:14;;;;;;;14.00;8.80;;;;;;;20.14;36.46;102257.73;105366;1271;72038;-70
2022/03/26 12:28:42;;;;;;;14.40;7.90;;;;;;;20.22;36.51;102262.76;105261;1271;62697;-68
2022/03/26 12:31:13;;;;;;;13.90;8.20;;;;;;;20.13;36.40;102258.08;105370;1270;60608;-69
2022/03/26 12:33:47;;;;;;;12.40;7.30;;;;;;;20.10;37.12;102256.68;105314;1271;73076;-70
2022/03/26 12:36:15;;;;;;;13.40;8.00;;;;;;;20.07;37.28;102249.45;105221;1271;70665;-70
2022/03/26 12:38:49;;;;;;;13.10;6.50;;;;;;;20.00;37.65;102256.92;105245;1271;72973;-68